sensor_id;sensor_type;location;lat;lon;timestamp;temperature;humidity
41939;DHT22;23057;48.554;14.454;2023-11-21T00:01:47;3.70;99.90
41939;DHT22;23057;48.554;14.454;2023-11-21T00:04:18;3.70;99.90
41939;DHT22;23057;48.554;14.454;2023-11-21T00:06:48;3.70;99.90
41939;DHT22;23057;48.554;14.454;2023-11-21T00:09:19;3.70;99.90
41939;DHT22;23057;48.554;14.454;2023-11-21T00:11:50;3.60;99.90
41939;DHT22;23057;48.554;14.454;2023-11-21T00:14:21;3.50;99.90
41939;DHT22;23057;48.554;14.454;2023-11-21T00:16:52;3.50;99.90
41939;DHT22;23057;48.554;14.454;2023-11-21T00:19:22;3.60;99.90
41939;DHT22;23057;48.554;14.454;2023-11-21T00:21:53;3.70;99.90
41939;DHT22;23057;48.554;14.454;2023-11-21T00:24:24;3.70;99.90
41939;DHT22;23057;48.554;14.454;2023-11-21T00:26:56;3.70;99.90
41939;DHT22;23057;48.554;14.454;2023-11-21T00:29:26;3.70;99.90
41939;DHT22;23057;48.554;14.454;2023-11-21T00:31:57;3.70;99.90
41939;DHT22;23057;48.554;14.454;2023-11-21T00:34:28;3.60;99.90
41939;DHT22;23057;48.554;14.454;2023-11-21T00:37:00;3.70;99.90
41939;DHT22;23057;48.554;14.454;2023-11-21T00:39:31;3.70;99.90
41939;DHT22;23057;48.554;14.454;2023-11-21T00:42:03;3.60;99.90
41939;DHT22;23057;48.554;14.454;2023-11-21T00:44:37;3.60;99.90
41939;DHT22;23057;48.554;14.454;2023-11-21T00:47:09;3.50;99.90
41939;DHT22;23057;48.554;14.454;2023-11-21T00:49:40;3.40;99.90
41939;DHT22;23057;48.554;14.454;2023-11-21T00:52:11;3.40;99.90
41939;DHT22;23057;48.554;14.454;2023-11-21T00:54:42;3.40;99.90
41939;DHT22;23057;48.554;14.454;2023-11-21T00:57:13;3.40;99.90
41939;DHT22;23057;48.554;14.454;2023-11-21T00:59:44;3.40;99.90
41939;DHT22;23057;48.554;14.454;2023-11-21T01:02:15;3.40;99.90
41939;DHT22;23057;48.554;14.454;2023-11-21T01:04:46;3.40;99.90
41939;DHT22;23057;48.554;14.454;2023-11-21T01:07:18;3.50;99.90
41939;DHT22;23057;48.554;14.454;2023-11-21T01:09:50;3.60;99.90
41939;DHT22;23057;48.554;14.454;2023-11-21T01:12:21;3.70;99.90
41939;DHT22;23057;48.554;14.454;2023-11-21T01:14:52;3.80;99.90
41939;DHT22;23057;48.554;14.454;2023-11-21T01:17:23;3.90;99.90
41939;DHT22;23057;48.554;14.454;2023-11-21T01:19:53;3.90;99.90
41939;DHT22;23057;48.554;14.454;2023-11-21T01:22:24;3.90;99.90
41939;DHT22;23057;48.554;14.454;2023-11-21T01:24:56;3.90;99.90
41939;DHT22;23057;48.554;14.454;2023-11-21T01:27:28;3.90;99.90
41939;DHT22;23057;48.554;14.454;2023-11-21T01:29:59;3.80;99.90
41939;DHT22;23057;48.554;14.454;2023-11-21T01:32:29;3.80;99.90
41939;DHT22;23057;48.554;14.454;2023-11-21T01:35:00;3.90;99.90
41939;DHT22;23057;48.554;14.454;2023-11-21T01:37:31;3.80;99.90
41939;DHT22;23057;48.554;14.454;2023-11-21T01:40:03;3.70;99.90
41939;DHT22;23057;48.554;14.454;2023-11-21T01:42:42;3.70;99.90
41939;DHT22;23057;48.554;14.454;2023-11-21T01:45:17;3.70;99.90
41939;DHT22;23057;48.554;14.454;2023-11-21T01:47:48;3.70;99.90
41939;DHT22;23057;48.554;14.454;2023-11-21T01:50:19;3.60;99.90
41939;DHT22;23057;48.554;14.454;2023-11-21T01:52:52;3.50;99.90
41939;DHT22;23057;48.554;14.454;2023-11-21T01:55:24;3.60;99.90
41939;DHT22;23057;48.554;14.454;2023-11-21T01:57:56;3.80;99.90
41939;DHT22;23057;48.554;14.454;2023-11-21T02:00:28;3.80;99.90
41939;DHT22;23057;48.554;14.454;2023-11-21T02:03:01;3.80;99.90
41939;DHT22;23057;48.554;14.454;2023-11-21T02:05:32;3.90;99.90
41939;DHT22;23057;48.554;14.454;2023-11-21T02:08:04;3.90;99.90
41939;DHT22;23057;48.554;14.454;2023-11-21T02:10:35;4.00;99.90
41939;DHT22;23057;48.554;14.454;2023-11-21T02:13:07;4.00;99.90
41939;DHT22;23057;48.554;14.454;2023-11-21T02:15:38;4.10;99.90
41939;DHT22;23057;48.554;14.454;2023-11-21T02:18:09;4.10;99.90
41939;DHT22;23057;48.554;14.454;2023-11-21T02:20:41;4.10;99.90
41939;DHT22;23057;48.554;14.454;2023-11-21T02:23:13;4.00;99.90
41939;DHT22;23057;48.554;14.454;2023-11-21T02:25:44;4.00;99.90
41939;DHT22;23057;48.554;14.454;2023-11-21T02:28:15;4.10;99.90
41939;DHT22;23057;48.554;14.454;2023-11-21T02:30:55;4.00;99.90
41939;DHT22;23057;48.554;14.454;2023-11-21T02:33:28;3.90;99.90
41939;DHT22;23057;48.554;14.454;2023-11-21T02:35:59;3.90;99.90
41939;DHT22;23057;48.554;14.454;2023-11-21T02:38:33;3.90;99.90
41939;DHT22;23057;48.554;14.454;2023-11-21T02:41:04;4.00;99.90
41939;DHT22;23057;48.554;14.454;2023-11-21T02:43:35;4.00;99.90
41939;DHT22;23057;48.554;14.454;2023-11-21T02:46:05;4.00;99.90
41939;DHT22;23057;48.554;14.454;2023-11-21T02:48:37;3.90;99.90
41939;DHT22;23057;48.554;14.454;2023-11-21T02:51:08;3.80;99.90
41939;DHT22;23057;48.554;14.454;2023-11-21T02:53:39;3.70;99.90
41939;DHT22;23057;48.554;14.454;2023-11-21T02:56:09;3.80;99.90
41939;DHT22;23057;48.554;14.454;2023-11-21T02:58:43;3.70;99.90
41939;DHT22;23057;48.554;14.454;2023-11-21T03:01:14;3.80;99.90
41939;DHT22;23057;48.554;14.454;2023-11-21T03:03:45;3.70;99.90
41939;DHT22;23057;48.554;14.454;2023-11-21T03:06:21;3.70;99.90
41939;DHT22;23057;48.554;14.454;2023-11-21T03:08:53;3.60;99.90
41939;DHT22;23057;48.554;14.454;2023-11-21T03:11:24;3.60;99.90
41939;DHT22;23057;48.554;14.454;2023-11-21T03:13:55;3.60;99.90
41939;DHT22;23057;48.554;14.454;2023-11-21T03:16:26;3.60;99.90
41939;DHT22;23057;48.554;14.454;2023-11-21T03:18:57;3.70;99.90
41939;DHT22;23057;48.554;14.454;2023-11-21T03:21:29;3.60;99.90
41939;DHT22;23057;48.554;14.454;2023-11-21T03:23:59;3.60;99.90
41939;DHT22;23057;48.554;14.454;2023-11-21T03:26:30;3.50;99.90
41939;DHT22;23057;48.554;14.454;2023-11-21T03:29:01;3.40;99.90
41939;DHT22;23057;48.554;14.454;2023-11-21T03:31:32;3.30;99.90
41939;DHT22;23057;48.554;14.454;2023-11-21T03:34:03;3.30;99.90
41939;DHT22;23057;48.554;14.454;2023-11-21T03:36:34;3.30;99.90
41939;DHT22;23057;48.554;14.454;2023-11-21T03:39:04;3.40;99.90
41939;DHT22;23057;48.554;14.454;2023-11-21T03:41:35;3.40;99.90
41939;DHT22;23057;48.554;14.454;2023-11-21T03:44:06;3.20;99.90
41939;DHT22;23057;48.554;14.454;2023-11-21T03:46:37;3.20;99.90
41939;DHT22;23057;48.554;14.454;2023-11-21T03:49:08;3.30;99.90
41939;DHT22;23057;48.554;14.454;2023-11-21T03:51:39;3.20;99.90
41939;DHT22;23057;48.554;14.454;2023-11-21T03:54:09;3.00;99.90
41939;DHT22;23057;48.554;14.454;2023-11-21T03:56:41;3.00;99.90
41939;DHT22;23057;48.554;14.454;2023-11-21T03:59:12;3.00;99.90
41939;DHT22;23057;48.554;14.454;2023-11-21T04:01:42;3.10;99.90
41939;DHT22;23057;48.554;14.454;2023-11-21T04:04:13;3.30;99.90
41939;DHT22;23057;48.554;14.454;2023-11-21T04:06:44;3.50;99.90
41939;DHT22;23057;48.554;14.454;2023-11-21T04:09:15;3.40;99.90
41939;DHT22;23057;48.554;14.454;2023-11-21T04:11:46;3.30;99.90
41939;DHT22;23057;48.554;14.454;2023-11-21T04:14:17;3.50;99.90
41939;DHT22;23057;48.554;14.454;2023-11-21T04:16:49;3.50;99.90
41939;DHT22;23057;48.554;14.454;2023-11-21T04:19:19;3.50;99.90
41939;DHT22;23057;48.554;14.454;2023-11-21T04:21:51;3.40;99.90
41939;DHT22;23057;48.554;14.454;2023-11-21T04:24:21;3.20;99.90
41939;DHT22;23057;48.554;14.454;2023-11-21T04:26:52;3.10;99.90
41939;DHT22;23057;48.554;14.454;2023-11-21T04:29:23;3.10;99.90
41939;DHT22;23057;48.554;14.454;2023-11-21T04:31:54;3.10;99.90
41939;DHT22;23057;48.554;14.454;2023-11-21T04:34:25;3.10;99.90
41939;DHT22;23057;48.554;14.454;2023-11-21T04:36:56;3.10;99.90
41939;DHT22;23057;48.554;14.454;2023-11-21T04:39:27;3.00;99.90
41939;DHT22;23057;48.554;14.454;2023-11-21T04:41:58;2.90;99.90
41939;DHT22;23057;48.554;14.454;2023-11-21T04:44:29;2.90;99.90
41939;DHT22;23057;48.554;14.454;2023-11-21T04:46:59;2.90;99.90
41939;DHT22;23057;48.554;14.454;2023-11-21T04:49:30;2.90;99.90
41939;DHT22;23057;48.554;14.454;2023-11-21T04:52:01;2.80;99.90
41939;DHT22;23057;48.554;14.454;2023-11-21T04:54:33;2.80;99.90
41939;DHT22;23057;48.554;14.454;2023-11-21T04:57:04;2.90;99.90
41939;DHT22;23057;48.554;14.454;2023-11-21T04:59:37;2.90;99.90
41939;DHT22;23057;48.554;14.454;2023-11-21T05:02:08;3.00;99.90
41939;DHT22;23057;48.554;14.454;2023-11-21T05:04:39;3.10;99.90
41939;DHT22;23057;48.554;14.454;2023-11-21T05:07:10;2.80;99.90
41939;DHT22;23057;48.554;14.454;2023-11-21T05:09:44;2.60;99.90
41939;DHT22;23057;48.554;14.454;2023-11-21T05:12:16;2.80;99.90
41939;DHT22;23057;48.554;14.454;2023-11-21T05:14:47;2.80;99.90
41939;DHT22;23057;48.554;14.454;2023-11-21T05:17:19;3.00;99.90
41939;DHT22;23057;48.554;14.454;2023-11-21T05:19:49;3.10;99.90
41939;DHT22;23057;48.554;14.454;2023-11-21T05:22:20;3.10;99.90
41939;DHT22;23057;48.554;14.454;2023-11-21T05:24:51;3.20;99.90
41939;DHT22;23057;48.554;14.454;2023-11-21T05:27:22;3.20;99.90
41939;DHT22;23057;48.554;14.454;2023-11-21T05:29:53;3.20;99.90
41939;DHT22;23057;48.554;14.454;2023-11-21T05:32:24;3.00;99.90
41939;DHT22;23057;48.554;14.454;2023-11-21T05:34:55;2.90;99.90
41939;DHT22;23057;48.554;14.454;2023-11-21T05:37:26;3.00;99.90
41939;DHT22;23057;48.554;14.454;2023-11-21T05:39:57;3.20;99.90
41939;DHT22;23057;48.554;14.454;2023-11-21T05:42:28;3.30;99.90
41939;DHT22;23057;48.554;14.454;2023-11-21T05:45:00;3.30;99.90
41939;DHT22;23057;48.554;14.454;2023-11-21T05:47:43;3.30;99.90
41939;DHT22;23057;48.554;14.454;2023-11-21T05:50:16;3.20;99.90
41939;DHT22;23057;48.554;14.454;2023-11-21T05:52:48;3.10;99.90
41939;DHT22;23057;48.554;14.454;2023-11-21T05:55:22;3.00;99.90
41939;DHT22;23057;48.554;14.454;2023-11-21T05:57:55;3.00;99.90
41939;DHT22;23057;48.554;14.454;2023-11-21T06:00:26;3.10;99.90
41939;DHT22;23057;48.554;14.454;2023-11-21T06:02:57;3.20;99.90
41939;DHT22;23057;48.554;14.454;2023-11-21T06:05:28;3.30;99.90
41939;DHT22;23057;48.554;14.454;2023-11-21T06:08:02;3.20;99.90
41939;DHT22;23057;48.554;14.454;2023-11-21T06:10:33;3.20;99.90
41939;DHT22;23057;48.554;14.454;2023-11-21T06:13:04;3.10;99.90
41939;DHT22;23057;48.554;14.454;2023-11-21T06:15:35;3.10;99.90
41939;DHT22;23057;48.554;14.454;2023-11-21T06:18:06;3.00;99.90
41939;DHT22;23057;48.554;14.454;2023-11-21T06:20:40;3.10;99.90
41939;DHT22;23057;48.554;14.454;2023-11-21T06:23:11;3.20;99.90
41939;DHT22;23057;48.554;14.454;2023-11-21T06:25:42;3.20;99.90
41939;DHT22;23057;48.554;14.454;2023-11-21T06:28:12;3.30;99.90
41939;DHT22;23057;48.554;14.454;2023-11-21T06:30:46;3.30;99.90
41939;DHT22;23057;48.554;14.454;2023-11-21T06:33:16;3.30;99.90
41939;DHT22;23057;48.554;14.454;2023-11-21T06:35:47;3.30;99.90
41939;DHT22;23057;48.554;14.454;2023-11-21T06:38:18;3.40;99.90
41939;DHT22;23057;48.554;14.454;2023-11-21T06:40:50;3.50;99.90
41939;DHT22;23057;48.554;14.454;2023-11-21T06:43:21;3.50;99.90
41939;DHT22;23057;48.554;14.454;2023-11-21T06:45:52;3.60;99.90
41939;DHT22;23057;48.554;14.454;2023-11-21T06:48:23;3.50;99.90
41939;DHT22;23057;48.554;14.454;2023-11-21T06:50:54;3.50;99.90
41939;DHT22;23057;48.554;14.454;2023-11-21T06:53:25;3.60;99.90
41939;DHT22;23057;48.554;14.454;2023-11-21T06:55:55;3.60;99.90
41939;DHT22;23057;48.554;14.454;2023-11-21T06:58:26;3.60;99.90
41939;DHT22;23057;48.554;14.454;2023-11-21T07:00:57;3.70;99.90
41939;DHT22;23057;48.554;14.454;2023-11-21T07:03:28;3.70;99.90
41939;DHT22;23057;48.554;14.454;2023-11-21T07:05:59;3.80;99.90
41939;DHT22;23057;48.554;14.454;2023-11-21T07:08:30;3.90;99.90
41939;DHT22;23057;48.554;14.454;2023-11-21T07:11:01;4.00;99.90
41939;DHT22;23057;48.554;14.454;2023-11-21T07:13:33;4.00;99.90
41939;DHT22;23057;48.554;14.454;2023-11-21T07:16:04;4.10;99.90
41939;DHT22;23057;48.554;14.454;2023-11-21T07:18:35;4.20;99.90
41939;DHT22;23057;48.554;14.454;2023-11-21T07:21:06;3.80;99.90
41939;DHT22;23057;48.554;14.454;2023-11-21T07:23:38;3.80;99.90
41939;DHT22;23057;48.554;14.454;2023-11-21T07:26:09;3.90;99.90
41939;DHT22;23057;48.554;14.454;2023-11-21T07:28:41;4.00;99.90
41939;DHT22;23057;48.554;14.454;2023-11-21T07:31:11;4.10;99.90
41939;DHT22;23057;48.554;14.454;2023-11-21T07:33:42;4.10;99.90
41939;DHT22;23057;48.554;14.454;2023-11-21T07:36:14;4.10;99.90
41939;DHT22;23057;48.554;14.454;2023-11-21T07:38:46;4.20;99.90
41939;DHT22;23057;48.554;14.454;2023-11-21T07:41:18;4.20;99.90
41939;DHT22;23057;48.554;14.454;2023-11-21T07:43:49;4.20;99.90
41939;DHT22;23057;48.554;14.454;2023-11-21T07:46:20;4.20;99.90
41939;DHT22;23057;48.554;14.454;2023-11-21T07:48:51;4.20;99.90
41939;DHT22;23057;48.554;14.454;2023-11-21T07:51:22;4.20;99.90
41939;DHT22;23057;48.554;14.454;2023-11-21T07:53:53;4.30;99.90
41939;DHT22;23057;48.554;14.454;2023-11-21T07:56:24;4.30;99.90
41939;DHT22;23057;48.554;14.454;2023-11-21T07:58:55;4.40;99.90
41939;DHT22;23057;48.554;14.454;2023-11-21T08:01:26;4.40;99.90
41939;DHT22;23057;48.554;14.454;2023-11-21T08:03:58;4.50;99.90
41939;DHT22;23057;48.554;14.454;2023-11-21T08:06:33;4.50;99.90
41939;DHT22;23057;48.554;14.454;2023-11-21T08:09:04;4.50;99.90
41939;DHT22;23057;48.554;14.454;2023-11-21T08:11:35;4.50;99.90
41939;DHT22;23057;48.554;14.454;2023-11-21T08:14:06;4.60;99.90
41939;DHT22;23057;48.554;14.454;2023-11-21T08:16:36;4.60;99.90
41939;DHT22;23057;48.554;14.454;2023-11-21T08:19:08;4.60;99.90
41939;DHT22;23057;48.554;14.454;2023-11-21T08:21:40;4.60;99.90
41939;DHT22;23057;48.554;14.454;2023-11-21T08:24:10;4.50;99.90
41939;DHT22;23057;48.554;14.454;2023-11-21T08:26:41;4.40;99.90
41939;DHT22;23057;48.554;14.454;2023-11-21T08:29:12;4.40;99.90
41939;DHT22;23057;48.554;14.454;2023-11-21T08:31:43;4.40;99.90
41939;DHT22;23057;48.554;14.454;2023-11-21T08:34:17;4.40;99.90
41939;DHT22;23057;48.554;14.454;2023-11-21T08:36:48;4.40;99.90
41939;DHT22;23057;48.554;14.454;2023-11-21T08:39:22;4.60;99.90
41939;DHT22;23057;48.554;14.454;2023-11-21T08:41:54;4.60;99.90
41939;DHT22;23057;48.554;14.454;2023-11-21T08:44:25;4.60;99.90
41939;DHT22;23057;48.554;14.454;2023-11-21T08:46:56;4.70;99.90
41939;DHT22;23057;48.554;14.454;2023-11-21T08:49:26;4.80;99.90
41939;DHT22;23057;48.554;14.454;2023-11-21T08:51:59;4.90;99.90
41939;DHT22;23057;48.554;14.454;2023-11-21T08:54:31;5.00;99.90
41939;DHT22;23057;48.554;14.454;2023-11-21T08:57:02;5.10;99.90
41939;DHT22;23057;48.554;14.454;2023-11-21T08:59:33;5.10;99.90
41939;DHT22;23057;48.554;14.454;2023-11-21T09:02:04;5.20;99.90
41939;DHT22;23057;48.554;14.454;2023-11-21T09:04:35;5.30;99.90
41939;DHT22;23057;48.554;14.454;2023-11-21T09:07:06;5.30;99.90
41939;DHT22;23057;48.554;14.454;2023-11-21T09:09:36;5.30;99.90
41939;DHT22;23057;48.554;14.454;2023-11-21T09:12:07;5.50;99.90
41939;DHT22;23057;48.554;14.454;2023-11-21T09:14:43;5.50;99.90
41939;DHT22;23057;48.554;14.454;2023-11-21T09:17:14;5.60;99.90
41939;DHT22;23057;48.554;14.454;2023-11-21T09:19:45;5.70;99.90
41939;DHT22;23057;48.554;14.454;2023-11-21T09:22:20;5.80;99.90
41939;DHT22;23057;48.554;14.454;2023-11-21T09:24:51;6.10;99.90
41939;DHT22;23057;48.554;14.454;2023-11-21T09:27:22;6.30;99.90
41939;DHT22;23057;48.554;14.454;2023-11-21T09:29:53;6.40;99.90
41939;DHT22;23057;48.554;14.454;2023-11-21T09:32:24;6.40;99.90
41939;DHT22;23057;48.554;14.454;2023-11-21T09:34:54;6.60;99.90
41939;DHT22;23057;48.554;14.454;2023-11-21T09:37:28;6.70;99.90
41939;DHT22;23057;48.554;14.454;2023-11-21T09:39:59;6.80;99.90
41939;DHT22;23057;48.554;14.454;2023-11-21T09:42:35;6.90;99.90
41939;DHT22;23057;48.554;14.454;2023-11-21T09:47:59;7.00;99.90
41939;DHT22;23057;48.554;14.454;2023-11-21T09:50:31;6.90;99.90
41939;DHT22;23057;48.554;14.454;2023-11-21T09:53:22;6.90;99.90
41939;DHT22;23057;48.554;14.454;2023-11-21T09:55:55;6.80;99.90
41939;DHT22;23057;48.554;14.454;2023-11-21T09:58:27;6.80;99.90
41939;DHT22;23057;48.554;14.454;2023-11-21T10:00:59;7.00;99.90
41939;DHT22;23057;48.554;14.454;2023-11-21T10:03:35;6.90;99.90
41939;DHT22;23057;48.554;14.454;2023-11-21T10:06:09;6.80;99.90
41939;DHT22;23057;48.554;14.454;2023-11-21T10:08:45;6.90;99.90
41939;DHT22;23057;48.554;14.454;2023-11-21T10:11:17;6.80;99.90
41939;DHT22;23057;48.554;14.454;2023-11-21T10:13:55;6.80;99.90
41939;DHT22;23057;48.554;14.454;2023-11-21T10:16:29;6.70;99.90
41939;DHT22;23057;48.554;14.454;2023-11-21T10:19:00;6.70;99.90
41939;DHT22;23057;48.554;14.454;2023-11-21T10:21:31;6.80;99.90
41939;DHT22;23057;48.554;14.454;2023-11-21T10:24:03;6.70;99.90
41939;DHT22;23057;48.554;14.454;2023-11-21T10:26:35;6.90;99.90
41939;DHT22;23057;48.554;14.454;2023-11-21T10:29:07;6.80;99.90
41939;DHT22;23057;48.554;14.454;2023-11-21T10:31:38;6.90;99.90
41939;DHT22;23057;48.554;14.454;2023-11-21T10:34:19;6.90;99.90
41939;DHT22;23057;48.554;14.454;2023-11-21T10:36:51;6.90;99.90
41939;DHT22;23057;48.554;14.454;2023-11-21T10:39:21;6.70;99.90
41939;DHT22;23057;48.554;14.454;2023-11-21T10:41:55;6.70;99.90
41939;DHT22;23057;48.554;14.454;2023-11-21T10:44:26;6.70;99.90
41939;DHT22;23057;48.554;14.454;2023-11-21T10:46:57;6.80;99.90
41939;DHT22;23057;48.554;14.454;2023-11-21T10:49:29;6.90;99.90
41939;DHT22;23057;48.554;14.454;2023-11-21T10:52:00;7.00;99.90
41939;DHT22;23057;48.554;14.454;2023-11-21T10:54:31;6.80;99.90
41939;DHT22;23057;48.554;14.454;2023-11-21T10:57:03;6.80;99.90
41939;DHT22;23057;48.554;14.454;2023-11-21T10:59:36;7.00;99.90
41939;DHT22;23057;48.554;14.454;2023-11-21T11:02:19;7.50;99.90
41939;DHT22;23057;48.554;14.454;2023-11-21T11:04:58;8.10;99.90
41939;DHT22;23057;48.554;14.454;2023-11-21T11:07:32;7.20;99.90
41939;DHT22;23057;48.554;14.454;2023-11-21T11:10:06;7.00;99.90
41939;DHT22;23057;48.554;14.454;2023-11-21T11:12:46;6.80;99.90
41939;DHT22;23057;48.554;14.454;2023-11-21T11:15:17;6.80;99.90
41939;DHT22;23057;48.554;14.454;2023-11-21T11:17:50;6.70;99.90
41939;DHT22;23057;48.554;14.454;2023-11-21T11:20:34;6.70;99.90
41939;DHT22;23057;48.554;14.454;2023-11-21T11:30:11;6.90;99.90
41939;DHT22;23057;48.554;14.454;2023-11-21T11:33:39;7.10;99.90
41939;DHT22;23057;48.554;14.454;2023-11-21T11:36:34;7.00;99.90
41939;DHT22;23057;48.554;14.454;2023-11-21T11:39:45;7.00;99.90
41939;DHT22;23057;48.554;14.454;2023-11-21T11:42:17;7.20;99.90
41939;DHT22;23057;48.554;14.454;2023-11-21T11:44:51;7.20;99.90
41939;DHT22;23057;48.554;14.454;2023-11-21T11:47:31;7.20;99.90
41939;DHT22;23057;48.554;14.454;2023-11-21T11:50:12;7.20;99.90
41939;DHT22;23057;48.554;14.454;2023-11-21T11:52:49;7.10;99.90
41939;DHT22;23057;48.554;14.454;2023-11-21T11:55:24;7.10;99.90
41939;DHT22;23057;48.554;14.454;2023-11-21T11:57:55;7.10;99.90
41939;DHT22;23057;48.554;14.454;2023-11-21T12:02:58;7.10;99.90
41939;DHT22;23057;48.554;14.454;2023-11-21T12:05:35;6.90;99.90
41939;DHT22;23057;48.554;14.454;2023-11-21T12:08:09;6.80;99.90
41939;DHT22;23057;48.554;14.454;2023-11-21T12:10:41;6.80;99.90
41939;DHT22;23057;48.554;14.454;2023-11-21T12:13:15;6.80;99.90
41939;DHT22;23057;48.554;14.454;2023-11-21T12:15:47;6.90;99.90
41939;DHT22;23057;48.554;14.454;2023-11-21T12:18:18;6.90;99.90
41939;DHT22;23057;48.554;14.454;2023-11-21T12:20:49;6.90;99.90
41939;DHT22;23057;48.554;14.454;2023-11-21T12:23:21;6.90;99.90
41939;DHT22;23057;48.554;14.454;2023-11-21T12:25:52;7.00;99.90
41939;DHT22;23057;48.554;14.454;2023-11-21T12:28:23;7.10;99.90
41939;DHT22;23057;48.554;14.454;2023-11-21T12:30:54;7.00;99.90
41939;DHT22;23057;48.554;14.454;2023-11-21T12:33:27;7.10;99.90
41939;DHT22;23057;48.554;14.454;2023-11-21T12:35:59;7.10;99.90
41939;DHT22;23057;48.554;14.454;2023-11-21T12:38:36;7.20;99.90
41939;DHT22;23057;48.554;14.454;2023-11-21T12:41:07;7.20;99.90
41939;DHT22;23057;48.554;14.454;2023-11-21T12:43:40;7.30;99.90
41939;DHT22;23057;48.554;14.454;2023-11-21T12:46:11;7.20;99.90
41939;DHT22;23057;48.554;14.454;2023-11-21T12:48:44;7.30;99.90
41939;DHT22;23057;48.554;14.454;2023-11-21T12:51:18;7.40;99.90
41939;DHT22;23057;48.554;14.454;2023-11-21T12:53:49;7.50;99.90
41939;DHT22;23057;48.554;14.454;2023-11-21T12:56:21;7.50;99.90
41939;DHT22;23057;48.554;14.454;2023-11-21T12:58:55;7.40;99.90
41939;DHT22;23057;48.554;14.454;2023-11-21T13:01:29;7.30;99.90
41939;DHT22;23057;48.554;14.454;2023-11-21T13:04:00;7.30;99.90
41939;DHT22;23057;48.554;14.454;2023-11-21T13:06:32;7.20;99.90
41939;DHT22;23057;48.554;14.454;2023-11-21T13:09:09;7.20;99.90
41939;DHT22;23057;48.554;14.454;2023-11-21T13:11:41;7.10;99.90
41939;DHT22;23057;48.554;14.454;2023-11-21T13:14:11;7.00;99.90
41939;DHT22;23057;48.554;14.454;2023-11-21T13:16:42;7.00;99.90
41939;DHT22;23057;48.554;14.454;2023-11-21T13:19:16;6.90;99.90
41939;DHT22;23057;48.554;14.454;2023-11-21T13:21:47;6.90;99.90
41939;DHT22;23057;48.554;14.454;2023-11-21T13:24:18;6.80;99.90
41939;DHT22;23057;48.554;14.454;2023-11-21T13:26:49;6.80;99.90
41939;DHT22;23057;48.554;14.454;2023-11-21T13:29:20;6.70;99.90
41939;DHT22;23057;48.554;14.454;2023-11-21T13:31:51;6.60;99.90
41939;DHT22;23057;48.554;14.454;2023-11-21T13:34:23;6.50;99.90
41939;DHT22;23057;48.554;14.454;2023-11-21T13:36:57;6.50;99.90
41939;DHT22;23057;48.554;14.454;2023-11-21T13:39:31;6.50;99.90
41939;DHT22;23057;48.554;14.454;2023-11-21T13:42:03;6.50;99.90
41939;DHT22;23057;48.554;14.454;2023-11-21T13:44:33;6.50;99.90
41939;DHT22;23057;48.554;14.454;2023-11-21T13:47:08;6.50;99.90
41939;DHT22;23057;48.554;14.454;2023-11-21T13:49:39;6.50;99.90
41939;DHT22;23057;48.554;14.454;2023-11-21T13:52:12;6.50;99.90
41939;DHT22;23057;48.554;14.454;2023-11-21T13:54:46;6.40;99.90
41939;DHT22;23057;48.554;14.454;2023-11-21T13:57:17;6.50;99.90
41939;DHT22;23057;48.554;14.454;2023-11-21T13:59:50;6.40;99.90
41939;DHT22;23057;48.554;14.454;2023-11-21T14:02:21;6.40;99.90
41939;DHT22;23057;48.554;14.454;2023-11-21T14:05:02;6.40;99.90
41939;DHT22;23057;48.554;14.454;2023-11-21T14:07:39;6.30;99.90
41939;DHT22;23057;48.554;14.454;2023-11-21T14:10:18;6.30;99.90
41939;DHT22;23057;48.554;14.454;2023-11-21T14:12:52;6.30;99.90
41939;DHT22;23057;48.554;14.454;2023-11-21T14:15:23;6.30;99.90
41939;DHT22;23057;48.554;14.454;2023-11-21T14:17:54;6.40;99.90
41939;DHT22;23057;48.554;14.454;2023-11-21T14:20:25;6.40;99.90
41939;DHT22;23057;48.554;14.454;2023-11-21T14:22:56;6.40;99.90
41939;DHT22;23057;48.554;14.454;2023-11-21T14:25:27;6.30;99.90
41939;DHT22;23057;48.554;14.454;2023-11-21T14:27:59;6.30;99.90
41939;DHT22;23057;48.554;14.454;2023-11-21T14:30:30;6.30;99.90
41939;DHT22;23057;48.554;14.454;2023-11-21T14:33:06;6.40;99.90
41939;DHT22;23057;48.554;14.454;2023-11-21T14:35:38;6.40;99.90
41939;DHT22;23057;48.554;14.454;2023-11-21T14:38:09;6.40;99.90
41939;DHT22;23057;48.554;14.454;2023-11-21T14:40:40;6.40;99.90
41939;DHT22;23057;48.554;14.454;2023-11-21T14:43:11;6.50;99.90
41939;DHT22;23057;48.554;14.454;2023-11-21T14:45:43;6.50;99.90
41939;DHT22;23057;48.554;14.454;2023-11-21T14:48:14;6.40;99.90
41939;DHT22;23057;48.554;14.454;2023-11-21T14:50:59;6.50;99.90
41939;DHT22;23057;48.554;14.454;2023-11-21T14:53:33;6.50;99.90
41939;DHT22;23057;48.554;14.454;2023-11-21T14:56:13;6.40;99.90
41939;DHT22;23057;48.554;14.454;2023-11-21T14:58:52;6.40;99.90
41939;DHT22;23057;48.554;14.454;2023-11-21T15:01:26;6.40;99.90
41939;DHT22;23057;48.554;14.454;2023-11-21T15:04:15;6.40;99.90
41939;DHT22;23057;48.554;14.454;2023-11-21T15:06:58;6.40;99.90
41939;DHT22;23057;48.554;14.454;2023-11-21T15:09:30;6.40;99.90
41939;DHT22;23057;48.554;14.454;2023-11-21T15:12:03;6.30;99.90
41939;DHT22;23057;48.554;14.454;2023-11-21T15:14:49;6.30;99.90
41939;DHT22;23057;48.554;14.454;2023-11-21T15:17:26;6.20;99.90
41939;DHT22;23057;48.554;14.454;2023-11-21T15:20:00;6.20;99.90
41939;DHT22;23057;48.554;14.454;2023-11-21T15:22:31;6.10;99.90
41939;DHT22;23057;48.554;14.454;2023-11-21T15:25:02;6.10;99.90
41939;DHT22;23057;48.554;14.454;2023-11-21T15:27:40;6.10;99.90
41939;DHT22;23057;48.554;14.454;2023-11-21T15:30:11;6.10;99.90
41939;DHT22;23057;48.554;14.454;2023-11-21T15:32:42;6.10;99.90
41939;DHT22;23057;48.554;14.454;2023-11-21T15:35:13;6.10;99.90
41939;DHT22;23057;48.554;14.454;2023-11-21T15:37:45;6.00;99.90
41939;DHT22;23057;48.554;14.454;2023-11-21T15:40:16;6.00;99.90
41939;DHT22;23057;48.554;14.454;2023-11-21T15:42:47;6.00;99.90
41939;DHT22;23057;48.554;14.454;2023-11-21T15:45:19;6.00;99.90
41939;DHT22;23057;48.554;14.454;2023-11-21T15:47:53;5.90;99.90
41939;DHT22;23057;48.554;14.454;2023-11-21T15:50:25;5.80;99.90
41939;DHT22;23057;48.554;14.454;2023-11-21T15:52:56;5.80;99.90
41939;DHT22;23057;48.554;14.454;2023-11-21T15:55:27;5.70;99.90
41939;DHT22;23057;48.554;14.454;2023-11-21T15:57:58;5.70;99.90
41939;DHT22;23057;48.554;14.454;2023-11-21T16:00:29;5.70;99.90
41939;DHT22;23057;48.554;14.454;2023-11-21T16:03:00;5.70;99.90
41939;DHT22;23057;48.554;14.454;2023-11-21T16:05:30;5.60;99.90
41939;DHT22;23057;48.554;14.454;2023-11-21T16:08:01;5.60;99.90
41939;DHT22;23057;48.554;14.454;2023-11-21T16:10:32;5.60;99.90
41939;DHT22;23057;48.554;14.454;2023-11-21T16:13:03;5.70;99.90
41939;DHT22;23057;48.554;14.454;2023-11-21T16:15:34;5.60;99.90